| time (UTC) | temp C | wind direction | speed KPH | gust KPH | rain 1hr cm | rain 24hr cm | rain mn cm | humidity % | barometer mb |
| 20260906231544 | 23 | 156 | 12.9 | 24.1 | 0.00 | 0.00 | 0.00 | 15 | 1006.7 |
| 20260906230048 | 23 | 215 | 12.9 | 24.1 | 0.00 | 0.00 | 0.00 | 15 | 1006.7 |
| 20260906224544 | 24 | 233 | 11.3 | 19.3 | 0.00 | 0.00 | 0.00 | 15 | 1006.8 |
| 20260906223041 | 24 | 193 | 12.9 | 24.1 | 0.00 | 0.00 | 0.00 | 14 | 1007.0 |
| 20260906221541 | 23 | 192 | 14.5 | 24.1 | 0.00 | 0.00 | 0.00 | 13 | 1006.9 |
| 20260906220039 | 23 | 209 | 25.7 | 37.0 | 0.00 | 0.00 | 0.00 | 13 | 1007.1 |
| 20260906214536 | 23 | 184 | 17.7 | 35.4 | 0.00 | 0.00 | 0.00 | 14 | 1007.4 |
| 20260906213035 | 24 | 200 | 12.9 | 25.7 | 0.00 | 0.00 | 0.00 | 15 | 1007.5 |
| 20260906211534 | 23 | 200 | 11.3 | 32.2 | 0.00 | 0.00 | 0.00 | 14 | 1007.6 |
| 20260906210033 | 23 | 160 | 16.1 | 29.0 | 0.00 | 0.00 | 0.00 | 12 | 1007.4 |
| 20260906204533 | 23 | 224 | 12.9 | 29.0 | 0.00 | 0.00 | 0.00 | 14 | 1007.7 |
| 20260906203031 | 23 | 259 | 17.7 | 32.2 | 0.00 | 0.00 | 0.00 | 13 | 1007.7 |
| 20260906201529 | 23 | 163 | 12.9 | 24.1 | 0.00 | 0.00 | 0.00 | 15 | 1007.9 |
| 20260906200027 | 23 | 278 | 12.9 | 27.4 | 0.00 | 0.00 | 0.00 | 12 | 1008.1 |
| 20260906194525 | 23 | 148 | 11.3 | 25.7 | 0.00 | 0.00 | 0.00 | 12 | 1008.3 |
| 20260906193023 | 23 | 189 | 17.7 | 32.2 | 0.00 | 0.00 | 0.00 | 12 | 1008.5 |
| 20260906191521 | 22 | 238 | 11.3 | 22.5 | 0.00 | 0.00 | 0.00 | 17 | 1008.4 |
| 20260906190018 | 22 | 200 | 12.9 | 22.5 | 0.00 | 0.00 | 0.00 | 18 | 1008.9 |
| 20260906184516 | 22 | 165 | 9.7 | 17.7 | 0.00 | 0.00 | 0.00 | 21 | 1009.3 |
| 20260906183018 | 21 | 205 | 11.3 | 22.5 | 0.00 | 0.00 | 0.00 | 21 | 1009.6 |
| 20260906181509 | 21 | 212 | 9.7 | 17.7 | 0.00 | 0.00 | 0.00 | 21 | 1009.8 |
| 20260906180006 | 20 | 290 | 4.8 | 14.5 | 0.00 | 0.00 | 0.00 | 25 | 1010.0 |
| 20260906174503 | 20 | 211 | 3.2 | 9.7 | 0.00 | 0.00 | 0.00 | 28 | 1010.3 |
| 20260906173110 | 19 | 281 | 1.6 | 9.7 | 0.00 | 0.00 | 0.00 | 28 | 1010.4 |
| 20260906171559 | 18 | 314 | 4.8 | 9.7 | 0.00 | 0.00 | 0.00 | 26 | 1010.7 |
| 20260906170053 | 17 | 325 | 0.0 | 4.8 | 0.00 | 0.00 | 0.00 | 34 | 1010.8 |
| 20260906164549 | 16 | 349 | 0.0 | 4.8 | 0.00 | 0.00 | 0.00 | 42 | 1010.9 |
| 20260906163046 | 16 | 306 | 0.0 | 8.0 | 0.00 | 0.00 | 0.00 | 42 | 1011.1 |
| 20260906161541 | 15 | 103 | 0.0 | 4.8 | 0.00 | 0.00 | 0.00 | 51 | 1011.4 |
| 20260906160037 | 13 | 214 | 0.0 | 4.8 | 0.00 | 0.00 | 0.00 | 56 | 1011.7 |
| 20260906154535 | 12 | 359 | 0.0 | 6.4 | 0.00 | 0.00 | 0.00 | 57 | 1011.9 |
| 20260906153030 | 11 | 130 | 0.0 | 3.2 | 0.00 | 0.00 | 0.00 | 63 | 1012.2 |
| 20260906151526 | 10 | 284 | 0.0 | 0.0 | 0.00 | 0.00 | 0.00 | 66 | 1012.3 |
| 20260906150022 | 8 | 285 | 0.0 | 3.2 | 0.00 | 0.00 | 0.00 | 69 | 1012.5 |
| 20260906144521 | 7 | 303 | 0.0 | 3.2 | 0.00 | 0.00 | 0.00 | 72 | 1012.7 |
| 20260906143016 | 6 | 255 | 1.6 | 3.2 | 0.00 | 0.00 | 0.00 | 73 | 1012.8 |
| 20260906141523 | 5 | 110 | 0.0 | 1.6 | 0.00 | 0.00 | 0.00 | 74 | 1012.7 |
| 20260906140014 | 2 | 110 | 0.0 | 3.2 | 0.00 | 0.00 | 0.00 | 84 | 1012.8 |
| 20260906134511 | 0 | 112 | 0.0 | 3.2 | 0.00 | 0.00 | 0.00 | 84 | 1012.8 |
| 20260906133010 | -1 | 123 | 0.0 | 4.8 | 0.00 | 0.00 | 0.00 | 81 | 1012.9 |
| 20260906131507 | -1 | 103 | 0.0 | 1.6 | 0.00 | 0.00 | 0.00 | 75 | 1012.6 |
| 20260906130005 | 0 | 103 | 0.0 | 1.6 | 0.00 | 0.00 | 0.00 | 84 | 1012.4 |
| 20260906124504 | 0 | 104 | 0.0 | 1.6 | 0.00 | 0.00 | 0.00 | 78 | 1012.4 |
| 20260906123104 | 0 | 104 | 0.0 | 1.6 | 0.00 | 0.00 | 0.00 | 82 | 1012.1 |
| 20260906121608 | 0 | 103 | 0.0 | 0.0 | 0.00 | 0.00 | 0.00 | 76 | 1012.0 |
| 20260906120106 | 0 | 103 | 0.0 | 3.2 | 0.00 | 0.00 | 0.00 | 72 | 1011.8 |
| 20260906114554 | 1 | 153 | 0.0 | 3.2 | 0.00 | 0.00 | 0.00 | 75 | 1011.6 |
| 20260906113056 | 0 | 92 | 0.0 | 3.2 | 0.00 | 0.00 | 0.00 | 71 | 1011.5 |
| 20260906111550 | 1 | 101 | 0.0 | 3.2 | 0.00 | 0.00 | 0.00 | 69 | 1011.5 |
| 20260906110046 | 2 | 102 | 0.0 | 3.2 | 0.00 | 0.00 | 0.00 | 66 | 1011.5 |
| 20260906104544 | 2 | 93 | 0.0 | 1.6 | 0.00 | 0.00 | 0.00 | 69 | 1011.3 |
| 20260906103052 | 2 | 105 | 0.0 | 3.2 | 0.00 | 0.00 | 0.00 | 71 | 1011.4 |
| 20260906101541 | 2 | 112 | 0.0 | 3.2 | 0.00 | 0.00 | 0.00 | 68 | 1011.3 |
| 20260906100041 | 2 | 98 | 0.0 | 1.6 | 0.00 | 0.00 | 0.00 | 70 | 1011.2 |
| 20260906094537 | 2 | 98 | 0.0 | 0.0 | 0.00 | 0.00 | 0.00 | 68 | 1011.2 |
| 20260906093041 | 2 | 98 | 0.0 | 1.6 | 0.00 | 0.00 | 0.00 | 68 | 1011.1 |
| 20260906091533 | 3 | 98 | 0.0 | 1.6 | 0.00 | 0.00 | 0.00 | 64 | 1011.2 |
| 20260906090033 | 4 | 333 | 0.0 | 3.2 | 0.00 | 0.00 | 0.00 | 66 | 1011.2 |
| 20260906084531 | 3 | 96 | 0.0 | 1.6 | 0.00 | 0.00 | 0.00 | 67 | 1011.2 |
| 20260906083030 | 3 | 96 | 0.0 | 4.8 | 0.00 | 0.00 | 0.00 | 68 | 1011.4 |
| 20260906081528 | 5 | 117 | 0.0 | 1.6 | 0.00 | 0.00 | 0.00 | 64 | 1011.3 |
| 20260906080029 | 4 | 117 | 0.0 | 1.6 | 0.00 | 0.00 | 0.00 | 65 | 1011.4 |
| 20260906074524 | 3 | 117 | 0.0 | 1.6 | 0.00 | 0.00 | 0.00 | 63 | 1011.9 |
| 20260906073022 | 5 | 75 | 0.0 | 1.6 | 0.00 | 0.00 | 0.00 | 65 | 1011.9 |
| 20260906071521 | 5 | 111 | 0.0 | 3.2 | 0.00 | 0.00 | 0.00 | 64 | 1012.0 |
| 20260906070019 | 5 | 214 | 0.0 | 4.8 | 0.00 | 0.00 | 0.00 | 62 | 1011.9 |
| 20260906064524 | 5 | 264 | 0.0 | 0.0 | 0.00 | 0.00 | 0.00 | 62 | 1012.0 |
| 20260906063013 | 5 | 63 | 0.0 | 0.0 | 0.00 | 0.00 | 0.00 | 61 | 1012.0 |
| 20260906061520 | 6 | 258 | 0.0 | 0.0 | 0.00 | 0.00 | 0.00 | 57 | 1012.2 |
| 20260906060008 | 6 | 13 | 0.0 | 0.0 | 0.00 | 0.00 | 0.00 | 60 | 1012.1 |
| 20260906054522 | 7 | 342 | 0.0 | 0.0 | 0.00 | 0.00 | 0.00 | 56 | 1012.1 |
| 20260906053007 | 8 | 105 | 0.0 | 0.0 | 0.00 | 0.00 | 0.00 | 55 | 1012.0 |
| 20260906051506 | 8 | 97 | 0.0 | 0.0 | 0.00 | 0.00 | 0.00 | 53 | 1012.0 |
| 20260906050006 | 8 | 97 | 0.0 | 0.0 | 0.00 | 0.00 | 0.00 | 55 | 1011.8 |
| 20260906044508 | 8 | 120 | 0.0 | 0.0 | 0.00 | 0.00 | 0.00 | 54 | 1011.8 |
| 20260906043018 | 8 | 112 | 0.0 | 0.0 | 0.00 | 0.00 | 0.00 | 54 | 1011.8 |
| 20260906041505 | 8 | 111 | 0.0 | 0.0 | 0.00 | 0.00 | 0.00 | 57 | 1011.6 |
| 20260906040005 | 8 | 111 | 0.0 | 0.0 | 0.00 | 0.00 | 0.00 | 56 | 1011.5 |
| 20260906034505 | 8 | 101 | 0.0 | 0.0 | 0.00 | 0.00 | 0.00 | 55 | 1011.4 |
| 20260906033004 | 10 | 137 | 0.0 | 0.0 | 0.00 | 0.00 | 0.00 | 55 | 1011.2 |
| 20260906031503 | 8 | 137 | 0.0 | 0.0 | 0.00 | 0.00 | 0.00 | 55 | 1011.0 |
| 20260906030003 | 11 | 115 | 0.0 | 0.0 | 0.00 | 0.00 | 0.00 | 50 | 1010.7 |
| 20260906024503 | 11 | 358 | 0.0 | 0.0 | 0.00 | 0.00 | 0.00 | 50 | 1010.5 |
| 20260906023001 | 13 | 358 | 0.0 | 0.0 | 0.00 | 0.00 | 0.00 | 45 | 1010.2 |
| 20260906021502 | 15 | 358 | 0.0 | 3.2 | 0.00 | 0.00 | 0.00 | 41 | 1010.0 |
| 20260906020001 | 16 | 345 | 0.0 | 3.2 | 0.00 | 0.00 | 0.00 | 38 | 1009.9 |
| 20260906014503 | 18 | 260 | 1.6 | 3.2 | 0.00 | 0.00 | 0.00 | 28 | 1009.9 |
| 20260906013100 | 20 | 252 | 1.6 | 6.4 | 0.00 | 0.00 | 0.00 | 25 | 1009.8 |
| 20260906011606 | 21 | 232 | 4.8 | 9.7 | 0.00 | 0.00 | 0.00 | 23 | 1009.7 |
| 20260906010059 | 22 | 253 | 6.4 | 11.3 | 0.00 | 0.00 | 0.00 | 21 | 1009.6 |
| 20260906004558 | 22 | 227 | 3.2 | 14.5 | 0.00 | 0.00 | 0.00 | 20 | 1009.6 |
| 20260906003057 | 22 | 207 | 6.4 | 14.5 | 0.00 | 0.00 | 0.00 | 20 | 1009.6 |
| 20260906001556 | 22 | 246 | 8.0 | 14.5 | 0.00 | 0.00 | 0.00 | 18 | 1009.7 |
| 20260906000053 | 22 | 217 | 8.0 | 14.5 | 0.00 | 0.00 | 0.00 | 18 | 1009.9 |
| 20260905234548 | 23 | 202 | 8.0 | 20.9 | 0.00 | 0.00 | 0.00 | 20 | 1010.0 |
| 20260905233045 | 23 | 210 | 14.5 | 22.5 | 0.00 | 0.00 | 0.00 | 19 | 1010.0 |